X  CloseMetar Aviation Weather Data     FYOA Ondangwa Airport

Temperature

16°C Temperature

3°C Dewpoint

42% Humidity



Wind

10 KM/H

 6 MPH

 3 M/S

 5 KTS



80°
Due East
Current Conditions

Data Offline Data Offline
Pressure 1020.92 (hPa) - 30.15 (in)
Visibility 0 (mi) - 0 (km)
Airport
Airport-code FYOA

Location Ondangwa Airport 595 (km)

Metar:
FYOA 202100Z AUTO 08005KT //// // ////// 16/03 Q1021

Time: 20-06-2021 23:00